sensor_id;sensor_type;location;lat;lon;timestamp;P1;durP1;ratioP1;P2;durP2;ratioP2
44189;SDS011;29856;52.144;5.430;2023-04-25T00:01:32;27.00;;;4.32;;
44189;SDS011;29856;52.144;5.430;2023-04-25T00:03:58;19.80;;;4.80;;
44189;SDS011;29856;52.144;5.430;2023-04-25T00:06:23;33.03;;;5.68;;
44189;SDS011;29856;52.144;5.430;2023-04-25T00:08:49;23.75;;;5.68;;
44189;SDS011;29856;52.144;5.430;2023-04-25T00:11:14;15.65;;;4.00;;
44189;SDS011;29856;52.144;5.430;2023-04-25T00:13:40;20.27;;;4.65;;
44189;SDS011;29856;52.144;5.430;2023-04-25T00:16:05;30.08;;;5.38;;
44189;SDS011;29856;52.144;5.430;2023-04-25T00:18:31;20.15;;;4.60;;
44189;SDS011;29856;52.144;5.430;2023-04-25T00:20:56;23.50;;;4.28;;
44189;SDS011;29856;52.144;5.430;2023-04-25T00:23:22;25.63;;;5.13;;
44189;SDS011;29856;52.144;5.430;2023-04-25T00:25:48;24.27;;;5.50;;
44189;SDS011;29856;52.144;5.430;2023-04-25T00:28:14;22.75;;;5.13;;
44189;SDS011;29856;52.144;5.430;2023-04-25T00:30:40;28.45;;;5.32;;
44189;SDS011;29856;52.144;5.430;2023-04-25T00:33:07;22.65;;;4.53;;
44189;SDS011;29856;52.144;5.430;2023-04-25T00:35:32;13.70;;;3.60;;
44189;SDS011;29856;52.144;5.430;2023-04-25T00:37:58;22.35;;;5.40;;
44189;SDS011;29856;52.144;5.430;2023-04-25T00:40:24;15.23;;;3.88;;
44189;SDS011;29856;52.144;5.430;2023-04-25T00:42:50;15.50;;;4.63;;
44189;SDS011;29856;52.144;5.430;2023-04-25T00:45:17;16.75;;;4.80;;
44189;SDS011;29856;52.144;5.430;2023-04-25T00:47:43;21.60;;;4.47;;
44189;SDS011;29856;52.144;5.430;2023-04-25T00:50:09;19.13;;;4.50;;
44189;SDS011;29856;52.144;5.430;2023-04-25T00:52:35;15.07;;;4.00;;
44189;SDS011;29856;52.144;5.430;2023-04-25T00:55:03;18.75;;;4.55;;
44189;SDS011;29856;52.144;5.430;2023-04-25T00:57:29;20.45;;;4.22;;
44189;SDS011;29856;52.144;5.430;2023-04-25T00:59:55;16.67;;;3.75;;
44189;SDS011;29856;52.144;5.430;2023-04-25T01:02:21;20.10;;;3.78;;
44189;SDS011;29856;52.144;5.430;2023-04-25T01:04:47;18.70;;;4.50;;
44189;SDS011;29856;52.144;5.430;2023-04-25T01:07:13;19.02;;;4.35;;
44189;SDS011;29856;52.144;5.430;2023-04-25T01:09:39;18.77;;;7.22;;
44189;SDS011;29856;52.144;5.430;2023-04-25T01:12:05;25.27;;;6.95;;
44189;SDS011;29856;52.144;5.430;2023-04-25T01:14:30;15.30;;;3.92;;
44189;SDS011;29856;52.144;5.430;2023-04-25T01:16:56;21.58;;;5.32;;
44189;SDS011;29856;52.144;5.430;2023-04-25T01:19:21;19.40;;;5.60;;
44189;SDS011;29856;52.144;5.430;2023-04-25T01:21:48;25.60;;;10.27;;
44189;SDS011;29856;52.144;5.430;2023-04-25T01:24:13;21.50;;;6.03;;
44189;SDS011;29856;52.144;5.430;2023-04-25T01:26:39;32.67;;;14.73;;
44189;SDS011;29856;52.144;5.430;2023-04-25T01:29:07;27.95;;;9.07;;
44189;SDS011;29856;52.144;5.430;2023-04-25T01:31:33;28.40;;;6.07;;
44189;SDS011;29856;52.144;5.430;2023-04-25T01:33:59;39.20;;;16.33;;
44189;SDS011;29856;52.144;5.430;2023-04-25T01:36:25;33.25;;;10.30;;
44189;SDS011;29856;52.144;5.430;2023-04-25T01:38:51;29.92;;;11.00;;
44189;SDS011;29856;52.144;5.430;2023-04-25T01:41:16;28.73;;;9.10;;
44189;SDS011;29856;52.144;5.430;2023-04-25T01:43:42;26.73;;;9.02;;
44189;SDS011;29856;52.144;5.430;2023-04-25T01:46:08;25.58;;;8.25;;
44189;SDS011;29856;52.144;5.430;2023-04-25T01:48:34;20.17;;;6.03;;
44189;SDS011;29856;52.144;5.430;2023-04-25T01:50:59;33.10;;;12.50;;
44189;SDS011;29856;52.144;5.430;2023-04-25T01:53:24;21.38;;;5.63;;
44189;SDS011;29856;52.144;5.430;2023-04-25T01:55:50;23.77;;;5.20;;
44189;SDS011;29856;52.144;5.430;2023-04-25T01:58:16;20.92;;;6.97;;
44189;SDS011;29856;52.144;5.430;2023-04-25T02:00:41;19.98;;;5.68;;
44189;SDS011;29856;52.144;5.430;2023-04-25T02:03:07;23.40;;;6.60;;
44189;SDS011;29856;52.144;5.430;2023-04-25T02:05:36;21.77;;;6.43;;
44189;SDS011;29856;52.144;5.430;2023-04-25T02:08:04;22.90;;;5.53;;
44189;SDS011;29856;52.144;5.430;2023-04-25T02:10:30;22.55;;;4.18;;
44189;SDS011;29856;52.144;5.430;2023-04-25T02:12:56;26.52;;;4.72;;
44189;SDS011;29856;52.144;5.430;2023-04-25T02:15:22;22.83;;;5.88;;
44189;SDS011;29856;52.144;5.430;2023-04-25T02:17:48;20.38;;;5.68;;
44189;SDS011;29856;52.144;5.430;2023-04-25T02:20:13;20.27;;;5.72;;
44189;SDS011;29856;52.144;5.430;2023-04-25T02:22:39;17.08;;;5.07;;
44189;SDS011;29856;52.144;5.430;2023-04-25T02:25:04;22.40;;;4.63;;
44189;SDS011;29856;52.144;5.430;2023-04-25T02:27:30;18.65;;;3.88;;
44189;SDS011;29856;52.144;5.430;2023-04-25T02:29:56;19.38;;;4.72;;
44189;SDS011;29856;52.144;5.430;2023-04-25T02:32:21;16.20;;;3.78;;
44189;SDS011;29856;52.144;5.430;2023-04-25T02:34:47;19.35;;;4.03;;
44189;SDS011;29856;52.144;5.430;2023-04-25T02:37:12;19.20;;;3.97;;
44189;SDS011;29856;52.144;5.430;2023-04-25T02:39:38;13.40;;;3.75;;
44189;SDS011;29856;52.144;5.430;2023-04-25T02:42:03;22.75;;;4.22;;
44189;SDS011;29856;52.144;5.430;2023-04-25T02:44:28;18.00;;;3.83;;
44189;SDS011;29856;52.144;5.430;2023-04-25T02:46:54;20.02;;;4.22;;
44189;SDS011;29856;52.144;5.430;2023-04-25T02:49:19;25.02;;;4.47;;
44189;SDS011;29856;52.144;5.430;2023-04-25T02:51:45;16.70;;;3.80;;
44189;SDS011;29856;52.144;5.430;2023-04-25T02:54:10;19.15;;;3.60;;
44189;SDS011;29856;52.144;5.430;2023-04-25T02:56:36;23.65;;;3.25;;
44189;SDS011;29856;52.144;5.430;2023-04-25T02:59:01;19.38;;;3.42;;
44189;SDS011;29856;52.144;5.430;2023-04-25T03:01:27;21.02;;;4.00;;
44189;SDS011;29856;52.144;5.430;2023-04-25T03:03:52;19.27;;;3.92;;
44189;SDS011;29856;52.144;5.430;2023-04-25T03:06:18;16.45;;;3.63;;
44189;SDS011;29856;52.144;5.430;2023-04-25T03:08:43;21.98;;;4.07;;
44189;SDS011;29856;52.144;5.430;2023-04-25T03:11:09;19.55;;;3.92;;
44189;SDS011;29856;52.144;5.430;2023-04-25T03:13:34;15.50;;;3.65;;
44189;SDS011;29856;52.144;5.430;2023-04-25T03:16:00;18.90;;;3.97;;
44189;SDS011;29856;52.144;5.430;2023-04-25T03:18:25;20.33;;;4.07;;
44189;SDS011;29856;52.144;5.430;2023-04-25T03:20:51;16.23;;;3.65;;
44189;SDS011;29856;52.144;5.430;2023-04-25T03:23:16;17.77;;;3.58;;
44189;SDS011;29856;52.144;5.430;2023-04-25T03:25:42;14.43;;;3.45;;
44189;SDS011;29856;52.144;5.430;2023-04-25T03:28:07;18.23;;;3.85;;
44189;SDS011;29856;52.144;5.430;2023-04-25T03:30:33;14.55;;;3.60;;
44189;SDS011;29856;52.144;5.430;2023-04-25T03:32:58;14.40;;;3.92;;
44189;SDS011;29856;52.144;5.430;2023-04-25T03:35:24;22.52;;;4.05;;
44189;SDS011;29856;52.144;5.430;2023-04-25T03:37:49;19.13;;;4.57;;
44189;SDS011;29856;52.144;5.430;2023-04-25T03:40:15;15.68;;;3.95;;
44189;SDS011;29856;52.144;5.430;2023-04-25T03:42:40;15.27;;;3.78;;
44189;SDS011;29856;52.144;5.430;2023-04-25T03:45:06;16.40;;;3.83;;
44189;SDS011;29856;52.144;5.430;2023-04-25T03:47:32;18.02;;;3.85;;
44189;SDS011;29856;52.144;5.430;2023-04-25T03:49:57;18.42;;;3.42;;
44189;SDS011;29856;52.144;5.430;2023-04-25T03:52:23;19.48;;;4.22;;
44189;SDS011;29856;52.144;5.430;2023-04-25T03:54:48;10.27;;;3.17;;
44189;SDS011;29856;52.144;5.430;2023-04-25T03:57:14;15.02;;;3.47;;
44189;SDS011;29856;52.144;5.430;2023-04-25T03:59:39;19.27;;;4.07;;
44189;SDS011;29856;52.144;5.430;2023-04-25T04:02:05;19.20;;;3.83;;
44189;SDS011;29856;52.144;5.430;2023-04-25T04:04:30;22.25;;;4.00;;
44189;SDS011;29856;52.144;5.430;2023-04-25T04:06:56;16.30;;;3.40;;
44189;SDS011;29856;52.144;5.430;2023-04-25T04:09:21;26.15;;;3.80;;
44189;SDS011;29856;52.144;5.430;2023-04-25T04:11:47;17.08;;;3.75;;
44189;SDS011;29856;52.144;5.430;2023-04-25T04:14:12;15.85;;;2.90;;
44189;SDS011;29856;52.144;5.430;2023-04-25T04:16:38;21.73;;;4.53;;
44189;SDS011;29856;52.144;5.430;2023-04-25T04:19:03;18.50;;;3.22;;
44189;SDS011;29856;52.144;5.430;2023-04-25T04:21:29;14.25;;;3.45;;
44189;SDS011;29856;52.144;5.430;2023-04-25T04:23:54;17.65;;;2.85;;
44189;SDS011;29856;52.144;5.430;2023-04-25T04:26:20;12.32;;;3.00;;
44189;SDS011;29856;52.144;5.430;2023-04-25T04:28:46;13.25;;;2.78;;
44189;SDS011;29856;52.144;5.430;2023-04-25T04:31:11;17.52;;;2.88;;
44189;SDS011;29856;52.144;5.430;2023-04-25T04:33:37;10.65;;;2.55;;
44189;SDS011;29856;52.144;5.430;2023-04-25T04:36:03;11.48;;;2.15;;
44189;SDS011;29856;52.144;5.430;2023-04-25T04:38:28;10.18;;;2.38;;
44189;SDS011;29856;52.144;5.430;2023-04-25T04:40:54;14.05;;;2.17;;
44189;SDS011;29856;52.144;5.430;2023-04-25T04:43:20;13.48;;;2.35;;
44189;SDS011;29856;52.144;5.430;2023-04-25T04:45:45;10.98;;;2.00;;
44189;SDS011;29856;52.144;5.430;2023-04-25T04:48:11;12.15;;;1.95;;
44189;SDS011;29856;52.144;5.430;2023-04-25T04:50:36;11.70;;;2.67;;
44189;SDS011;29856;52.144;5.430;2023-04-25T04:53:02;10.57;;;1.80;;
44189;SDS011;29856;52.144;5.430;2023-04-25T04:55:29;10.85;;;2.40;;
44189;SDS011;29856;52.144;5.430;2023-04-25T04:57:54;10.02;;;2.60;;
44189;SDS011;29856;52.144;5.430;2023-04-25T05:00:19;11.15;;;2.00;;
44189;SDS011;29856;52.144;5.430;2023-04-25T05:02:45;9.07;;;2.08;;
44189;SDS011;29856;52.144;5.430;2023-04-25T05:05:10;8.35;;;1.88;;
44189;SDS011;29856;52.144;5.430;2023-04-25T05:07:36;9.95;;;1.75;;
44189;SDS011;29856;52.144;5.430;2023-04-25T05:10:01;10.68;;;2.10;;
44189;SDS011;29856;52.144;5.430;2023-04-25T05:12:27;7.82;;;1.90;;
44189;SDS011;29856;52.144;5.430;2023-04-25T05:14:53;9.02;;;2.20;;
44189;SDS011;29856;52.144;5.430;2023-04-25T05:17:18;11.63;;;2.53;;
44189;SDS011;29856;52.144;5.430;2023-04-25T05:19:44;11.77;;;2.05;;
44189;SDS011;29856;52.144;5.430;2023-04-25T05:22:09;13.45;;;2.45;;
44189;SDS011;29856;52.144;5.430;2023-04-25T05:24:35;16.30;;;3.35;;
44189;SDS011;29856;52.144;5.430;2023-04-25T05:27:00;12.13;;;2.53;;
44189;SDS011;29856;52.144;5.430;2023-04-25T05:29:26;9.95;;;2.00;;
44189;SDS011;29856;52.144;5.430;2023-04-25T05:31:51;11.43;;;2.33;;
44189;SDS011;29856;52.144;5.430;2023-04-25T05:34:17;15.60;;;2.03;;
44189;SDS011;29856;52.144;5.430;2023-04-25T05:36:42;12.35;;;3.20;;
44189;SDS011;29856;52.144;5.430;2023-04-25T05:39:08;11.43;;;2.53;;
44189;SDS011;29856;52.144;5.430;2023-04-25T05:41:33;12.68;;;2.50;;
44189;SDS011;29856;52.144;5.430;2023-04-25T05:43:59;9.88;;;2.80;;
44189;SDS011;29856;52.144;5.430;2023-04-25T05:46:24;10.45;;;2.67;;
44189;SDS011;29856;52.144;5.430;2023-04-25T05:48:50;10.13;;;1.92;;
44189;SDS011;29856;52.144;5.430;2023-04-25T05:51:15;11.95;;;2.22;;
44189;SDS011;29856;52.144;5.430;2023-04-25T05:53:41;12.30;;;2.30;;
44189;SDS011;29856;52.144;5.430;2023-04-25T05:56:06;12.32;;;2.30;;
44189;SDS011;29856;52.144;5.430;2023-04-25T05:58:32;12.40;;;2.80;;
44189;SDS011;29856;52.144;5.430;2023-04-25T06:00:57;16.13;;;2.67;;
44189;SDS011;29856;52.144;5.430;2023-04-25T06:03:22;13.10;;;2.38;;
44189;SDS011;29856;52.144;5.430;2023-04-25T06:05:48;11.93;;;2.40;;
44189;SDS011;29856;52.144;5.430;2023-04-25T06:08:14;9.05;;;2.10;;
44189;SDS011;29856;52.144;5.430;2023-04-25T06:10:39;12.65;;;2.08;;
44189;SDS011;29856;52.144;5.430;2023-04-25T06:13:05;14.77;;;2.25;;
44189;SDS011;29856;52.144;5.430;2023-04-25T06:15:30;6.35;;;2.03;;
44189;SDS011;29856;52.144;5.430;2023-04-25T06:17:56;7.57;;;2.45;;
44189;SDS011;29856;52.144;5.430;2023-04-25T06:20:22;11.32;;;2.97;;
44189;SDS011;29856;52.144;5.430;2023-04-25T06:22:48;6.80;;;1.98;;
44189;SDS011;29856;52.144;5.430;2023-04-25T06:25:14;9.82;;;1.98;;
44189;SDS011;29856;52.144;5.430;2023-04-25T06:27:40;9.77;;;2.05;;
44189;SDS011;29856;52.144;5.430;2023-04-25T06:30:06;11.48;;;2.17;;
44189;SDS011;29856;52.144;5.430;2023-04-25T06:32:32;13.52;;;2.28;;
44189;SDS011;29856;52.144;5.430;2023-04-25T06:34:58;6.95;;;1.63;;
44189;SDS011;29856;52.144;5.430;2023-04-25T06:37:23;12.18;;;2.13;;
44189;SDS011;29856;52.144;5.430;2023-04-25T06:39:49;11.45;;;2.30;;
44189;SDS011;29856;52.144;5.430;2023-04-25T06:42:14;10.45;;;2.55;;
44189;SDS011;29856;52.144;5.430;2023-04-25T06:44:40;9.70;;;2.10;;
44189;SDS011;29856;52.144;5.430;2023-04-25T06:47:05;13.95;;;2.35;;
44189;SDS011;29856;52.144;5.430;2023-04-25T06:49:30;12.90;;;2.20;;
44189;SDS011;29856;52.144;5.430;2023-04-25T06:51:56;11.98;;;2.42;;
44189;SDS011;29856;52.144;5.430;2023-04-25T06:54:21;19.98;;;2.95;;
44189;SDS011;29856;52.144;5.430;2023-04-25T06:56:47;11.02;;;2.33;;
44189;SDS011;29856;52.144;5.430;2023-04-25T06:59:12;9.57;;;2.65;;
44189;SDS011;29856;52.144;5.430;2023-04-25T07:01:38;11.20;;;2.28;;
44189;SDS011;29856;52.144;5.430;2023-04-25T07:04:03;14.80;;;3.90;;
44189;SDS011;29856;52.144;5.430;2023-04-25T07:06:29;17.20;;;2.20;;
44189;SDS011;29856;52.144;5.430;2023-04-25T07:08:54;14.10;;;2.42;;
44189;SDS011;29856;52.144;5.430;2023-04-25T07:11:19;13.57;;;2.38;;
44189;SDS011;29856;52.144;5.430;2023-04-25T07:13:45;10.00;;;2.17;;
44189;SDS011;29856;52.144;5.430;2023-04-25T07:16:10;13.80;;;2.40;;
44189;SDS011;29856;52.144;5.430;2023-04-25T07:18:36;12.10;;;1.63;;
44189;SDS011;29856;52.144;5.430;2023-04-25T07:21:01;8.95;;;1.85;;
44189;SDS011;29856;52.144;5.430;2023-04-25T07:23:27;7.70;;;1.55;;
44189;SDS011;29856;52.144;5.430;2023-04-25T07:25:52;6.45;;;2.15;;
44189;SDS011;29856;52.144;5.430;2023-04-25T07:28:18;10.68;;;2.38;;
44189;SDS011;29856;52.144;5.430;2023-04-25T07:30:43;11.25;;;2.08;;
44189;SDS011;29856;52.144;5.430;2023-04-25T07:33:09;10.35;;;2.50;;
44189;SDS011;29856;52.144;5.430;2023-04-25T07:35:34;11.38;;;2.10;;
44189;SDS011;29856;52.144;5.430;2023-04-25T07:38:00;16.38;;;2.50;;
44189;SDS011;29856;52.144;5.430;2023-04-25T07:40:26;9.85;;;2.83;;
44189;SDS011;29856;52.144;5.430;2023-04-25T07:42:52;10.40;;;2.13;;
44189;SDS011;29856;52.144;5.430;2023-04-25T07:45:17;12.55;;;1.90;;
44189;SDS011;29856;52.144;5.430;2023-04-25T07:47:43;5.28;;;1.38;;
44189;SDS011;29856;52.144;5.430;2023-04-25T07:50:08;8.98;;;1.70;;
44189;SDS011;29856;52.144;5.430;2023-04-25T07:52:34;10.80;;;2.20;;
44189;SDS011;29856;52.144;5.430;2023-04-25T07:54:59;10.93;;;1.60;;
44189;SDS011;29856;52.144;5.430;2023-04-25T07:57:25;16.30;;;1.60;;
44189;SDS011;29856;52.144;5.430;2023-04-25T07:59:50;11.05;;;1.85;;
44189;SDS011;29856;52.144;5.430;2023-04-25T08:02:16;13.55;;;2.47;;
44189;SDS011;29856;52.144;5.430;2023-04-25T08:04:41;12.82;;;2.33;;
44189;SDS011;29856;52.144;5.430;2023-04-25T08:07:07;13.70;;;1.98;;
44189;SDS011;29856;52.144;5.430;2023-04-25T08:09:32;13.40;;;2.20;;
44189;SDS011;29856;52.144;5.430;2023-04-25T08:11:57;12.55;;;2.45;;
44189;SDS011;29856;52.144;5.430;2023-04-25T08:14:23;12.55;;;1.92;;
44189;SDS011;29856;52.144;5.430;2023-04-25T08:16:48;10.80;;;2.28;;
44189;SDS011;29856;52.144;5.430;2023-04-25T08:19:14;10.82;;;2.30;;
44189;SDS011;29856;52.144;5.430;2023-04-25T08:21:39;9.98;;;2.47;;
44189;SDS011;29856;52.144;5.430;2023-04-25T08:24:05;10.30;;;1.67;;
44189;SDS011;29856;52.144;5.430;2023-04-25T08:26:30;8.27;;;1.33;;
44189;SDS011;29856;52.144;5.430;2023-04-25T08:28:56;8.80;;;2.10;;
44189;SDS011;29856;52.144;5.430;2023-04-25T08:31:21;8.77;;;1.63;;
44189;SDS011;29856;52.144;5.430;2023-04-25T08:33:47;9.23;;;1.50;;
44189;SDS011;29856;52.144;5.430;2023-04-25T08:36:12;7.65;;;1.60;;
44189;SDS011;29856;52.144;5.430;2023-04-25T08:38:38;9.80;;;1.60;;
44189;SDS011;29856;52.144;5.430;2023-04-25T08:41:03;5.10;;;1.08;;
44189;SDS011;29856;52.144;5.430;2023-04-25T08:43:31;8.88;;;1.13;;
44189;SDS011;29856;52.144;5.430;2023-04-25T08:46:00;5.95;;;1.20;;
44189;SDS011;29856;52.144;5.430;2023-04-25T08:48:28;7.15;;;1.70;;
44189;SDS011;29856;52.144;5.430;2023-04-25T08:50:57;10.32;;;1.55;;
44189;SDS011;29856;52.144;5.430;2023-04-25T08:53:32;9.93;;;1.50;;
44189;SDS011;29856;52.144;5.430;2023-04-25T08:55:58;8.43;;;1.60;;
44189;SDS011;29856;52.144;5.430;2023-04-25T08:58:25;5.18;;;1.42;;
44189;SDS011;29856;52.144;5.430;2023-04-25T09:00:51;19.40;;;2.58;;
44189;SDS011;29856;52.144;5.430;2023-04-25T09:03:17;8.93;;;2.15;;
44189;SDS011;29856;52.144;5.430;2023-04-25T09:05:43;7.47;;;1.65;;
44189;SDS011;29856;52.144;5.430;2023-04-25T09:08:08;13.25;;;1.90;;
44189;SDS011;29856;52.144;5.430;2023-04-25T09:10:34;8.10;;;1.42;;
44189;SDS011;29856;52.144;5.430;2023-04-25T09:15:32;13.02;;;1.85;;
44189;SDS011;29856;52.144;5.430;2023-04-25T09:17:58;8.38;;;1.67;;
44189;SDS011;29856;52.144;5.430;2023-04-25T09:20:24;12.57;;;2.55;;
44189;SDS011;29856;52.144;5.430;2023-04-25T09:23:00;6.53;;;1.05;;
44189;SDS011;29856;52.144;5.430;2023-04-25T09:25:27;7.35;;;1.45;;
44189;SDS011;29856;52.144;5.430;2023-04-25T09:28:03;5.82;;;1.40;;
44189;SDS011;29856;52.144;5.430;2023-04-25T09:30:31;7.55;;;1.90;;
44189;SDS011;29856;52.144;5.430;2023-04-25T09:33:03;10.57;;;1.40;;
44189;SDS011;29856;52.144;5.430;2023-04-25T09:35:37;6.07;;;1.57;;
44189;SDS011;29856;52.144;5.430;2023-04-25T09:38:07;9.15;;;1.90;;
44189;SDS011;29856;52.144;5.430;2023-04-25T09:40:43;9.68;;;1.83;;
44189;SDS011;29856;52.144;5.430;2023-04-25T09:43:12;8.68;;;1.35;;
44189;SDS011;29856;52.144;5.430;2023-04-25T09:45:47;12.10;;;2.75;;
44189;SDS011;29856;52.144;5.430;2023-04-25T09:48:19;8.70;;;1.02;;
44189;SDS011;29856;52.144;5.430;2023-04-25T09:53:38;3.00;;;0.80;;
44189;SDS011;29856;52.144;5.430;2023-04-25T09:56:05;7.90;;;1.73;;
44189;SDS011;29856;52.144;5.430;2023-04-25T09:58:32;7.10;;;1.40;;
44189;SDS011;29856;52.144;5.430;2023-04-25T10:00:59;5.35;;;1.80;;
44189;SDS011;29856;52.144;5.430;2023-04-25T10:03:26;3.63;;;1.38;;
44189;SDS011;29856;52.144;5.430;2023-04-25T10:05:52;7.65;;;1.45;;
44189;SDS011;29856;52.144;5.430;2023-04-25T10:08:18;6.07;;;1.10;;
44189;SDS011;29856;52.144;5.430;2023-04-25T10:10:45;6.47;;;1.20;;
44189;SDS011;29856;52.144;5.430;2023-04-25T10:13:13;6.45;;;1.13;;
44189;SDS011;29856;52.144;5.430;2023-04-25T10:15:38;7.78;;;1.30;;
44189;SDS011;29856;52.144;5.430;2023-04-25T10:18:04;8.57;;;1.30;;
44189;SDS011;29856;52.144;5.430;2023-04-25T10:20:30;6.43;;;1.40;;
44189;SDS011;29856;52.144;5.430;2023-04-25T10:22:57;6.38;;;1.23;;
44189;SDS011;29856;52.144;5.430;2023-04-25T10:25:31;8.13;;;1.50;;
44189;SDS011;29856;52.144;5.430;2023-04-25T10:27:59;10.45;;;2.10;;
44189;SDS011;29856;52.144;5.430;2023-04-25T10:30:25;9.32;;;1.23;;
44189;SDS011;29856;52.144;5.430;2023-04-25T10:32:50;6.10;;;1.58;;
44189;SDS011;29856;52.144;5.430;2023-04-25T10:35:29;8.07;;;1.70;;
44189;SDS011;29856;52.144;5.430;2023-04-25T10:38:10;10.00;;;1.65;;
44189;SDS011;29856;52.144;5.430;2023-04-25T10:40:38;4.57;;;1.10;;
44189;SDS011;29856;52.144;5.430;2023-04-25T10:48:46;5.40;;;1.40;;
44189;SDS011;29856;52.144;5.430;2023-04-25T10:51:29;9.05;;;1.85;;
44189;SDS011;29856;52.144;5.430;2023-04-25T10:54:02;6.00;;;1.40;;
44189;SDS011;29856;52.144;5.430;2023-04-25T10:56:32;5.13;;;1.27;;
44189;SDS011;29856;52.144;5.430;2023-04-25T10:59:17;8.95;;;1.58;;
44189;SDS011;29856;52.144;5.430;2023-04-25T11:01:47;11.93;;;1.95;;
44189;SDS011;29856;52.144;5.430;2023-04-25T11:04:19;5.93;;;1.27;;
44189;SDS011;29856;52.144;5.430;2023-04-25T11:09:29;5.70;;;1.33;;
44189;SDS011;29856;52.144;5.430;2023-04-25T11:11:55;6.68;;;1.25;;
44189;SDS011;29856;52.144;5.430;2023-04-25T11:14:22;10.75;;;1.95;;
44189;SDS011;29856;52.144;5.430;2023-04-25T11:16:52;7.10;;;1.80;;
44189;SDS011;29856;52.144;5.430;2023-04-25T11:19:19;8.52;;;1.50;;
44189;SDS011;29856;52.144;5.430;2023-04-25T11:21:45;5.25;;;1.58;;
44189;SDS011;29856;52.144;5.430;2023-04-25T11:24:10;5.32;;;1.30;;
44189;SDS011;29856;52.144;5.430;2023-04-25T11:26:36;6.28;;;1.15;;
44189;SDS011;29856;52.144;5.430;2023-04-25T11:29:02;8.98;;;1.13;;
44189;SDS011;29856;52.144;5.430;2023-04-25T11:31:27;7.38;;;1.60;;
44189;SDS011;29856;52.144;5.430;2023-04-25T11:33:54;6.78;;;1.60;;
44189;SDS011;29856;52.144;5.430;2023-04-25T11:36:22;9.88;;;2.20;;
44189;SDS011;29856;52.144;5.430;2023-04-25T11:38:48;8.40;;;1.27;;
44189;SDS011;29856;52.144;5.430;2023-04-25T11:41:18;6.22;;;1.55;;
44189;SDS011;29856;52.144;5.430;2023-04-25T11:43:44;6.85;;;1.50;;
44189;SDS011;29856;52.144;5.430;2023-04-25T11:46:10;8.20;;;1.70;;
44189;SDS011;29856;52.144;5.430;2023-04-25T11:48:42;4.32;;;1.48;;
44189;SDS011;29856;52.144;5.430;2023-04-25T11:51:08;6.97;;;1.55;;
44189;SDS011;29856;52.144;5.430;2023-04-25T11:53:34;4.25;;;1.50;;
44189;SDS011;29856;52.144;5.430;2023-04-25T11:55:59;9.38;;;1.73;;
44189;SDS011;29856;52.144;5.430;2023-04-25T11:58:26;5.78;;;1.15;;
44189;SDS011;29856;52.144;5.430;2023-04-25T12:00:52;9.82;;;2.25;;
44189;SDS011;29856;52.144;5.430;2023-04-25T12:03:18;7.15;;;1.80;;
44189;SDS011;29856;52.144;5.430;2023-04-25T12:05:44;7.88;;;1.65;;
44189;SDS011;29856;52.144;5.430;2023-04-25T12:08:13;7.40;;;1.67;;
44189;SDS011;29856;52.144;5.430;2023-04-25T12:10:40;9.15;;;2.65;;
44189;SDS011;29856;52.144;5.430;2023-04-25T12:13:25;4.05;;;1.30;;
44189;SDS011;29856;52.144;5.430;2023-04-25T12:15:51;11.57;;;1.90;;
44189;SDS011;29856;52.144;5.430;2023-04-25T12:18:25;6.35;;;1.25;;
44189;SDS011;29856;52.144;5.430;2023-04-25T12:20:52;5.70;;;1.50;;
44189;SDS011;29856;52.144;5.430;2023-04-25T12:23:25;11.90;;;1.35;;
44189;SDS011;29856;52.144;5.430;2023-04-25T12:25:51;7.57;;;1.30;;
44189;SDS011;29856;52.144;5.430;2023-04-25T12:28:17;8.18;;;1.55;;
44189;SDS011;29856;52.144;5.430;2023-04-25T12:30:54;8.45;;;1.50;;
44189;SDS011;29856;52.144;5.430;2023-04-25T12:33:24;6.65;;;1.50;;
44189;SDS011;29856;52.144;5.430;2023-04-25T12:35:50;9.52;;;2.10;;
44189;SDS011;29856;52.144;5.430;2023-04-25T12:38:26;7.43;;;1.38;;
44189;SDS011;29856;52.144;5.430;2023-04-25T12:40:53;10.70;;;1.55;;
44189;SDS011;29856;52.144;5.430;2023-04-25T12:43:19;5.22;;;1.30;;
44189;SDS011;29856;52.144;5.430;2023-04-25T12:46:10;7.07;;;1.30;;
44189;SDS011;29856;52.144;5.430;2023-04-25T12:48:35;7.07;;;1.35;;
44189;SDS011;29856;52.144;5.430;2023-04-25T12:51:01;1.52;;;0.73;;
44189;SDS011;29856;52.144;5.430;2023-04-25T12:53:26;5.28;;;1.13;;
44189;SDS011;29856;52.144;5.430;2023-04-25T12:55:52;5.28;;;1.42;;
44189;SDS011;29856;52.144;5.430;2023-04-25T12:58:18;6.50;;;1.30;;
44189;SDS011;29856;52.144;5.430;2023-04-25T13:00:44;6.18;;;1.45;;
44189;SDS011;29856;52.144;5.430;2023-04-25T13:03:10;5.13;;;1.35;;
44189;SDS011;29856;52.144;5.430;2023-04-25T13:05:36;7.85;;;1.45;;
44189;SDS011;29856;52.144;5.430;2023-04-25T13:08:02;4.00;;;1.42;;
44189;SDS011;29856;52.144;5.430;2023-04-25T13:10:28;4.90;;;0.82;;
44189;SDS011;29856;52.144;5.430;2023-04-25T13:12:53;9.02;;;1.67;;
44189;SDS011;29856;52.144;5.430;2023-04-25T13:15:19;8.13;;;1.42;;
44189;SDS011;29856;52.144;5.430;2023-04-25T13:17:45;8.85;;;2.08;;
44189;SDS011;29856;52.144;5.430;2023-04-25T13:20:10;8.45;;;1.65;;
44189;SDS011;29856;52.144;5.430;2023-04-25T13:22:37;7.38;;;1.65;;
44189;SDS011;29856;52.144;5.430;2023-04-25T13:25:03;5.10;;;1.20;;
44189;SDS011;29856;52.144;5.430;2023-04-25T13:27:29;5.18;;;1.17;;
44189;SDS011;29856;52.144;5.430;2023-04-25T13:29:54;7.07;;;1.45;;
44189;SDS011;29856;52.144;5.430;2023-04-25T13:32:20;5.90;;;1.30;;
44189;SDS011;29856;52.144;5.430;2023-04-25T13:34:45;6.03;;;1.00;;
44189;SDS011;29856;52.144;5.430;2023-04-25T13:37:11;10.38;;;1.33;;
44189;SDS011;29856;52.144;5.430;2023-04-25T13:39:36;5.30;;;1.40;;
44189;SDS011;29856;52.144;5.430;2023-04-25T13:42:02;4.95;;;0.85;;
44189;SDS011;29856;52.144;5.430;2023-04-25T13:44:27;6.28;;;1.30;;
44189;SDS011;29856;52.144;5.430;2023-04-25T13:46:53;3.53;;;1.02;;
44189;SDS011;29856;52.144;5.430;2023-04-25T13:49:18;10.23;;;1.85;;
44189;SDS011;29856;52.144;5.430;2023-04-25T13:51:44;5.38;;;1.05;;
44189;SDS011;29856;52.144;5.430;2023-04-25T13:54:09;4.15;;;1.20;;
44189;SDS011;29856;52.144;5.430;2023-04-25T13:56:34;3.92;;;1.13;;
44189;SDS011;29856;52.144;5.430;2023-04-25T13:59:00;7.28;;;1.10;;
44189;SDS011;29856;52.144;5.430;2023-04-25T14:01:25;4.47;;;1.35;;
44189;SDS011;29856;52.144;5.430;2023-04-25T14:03:51;7.95;;;1.58;;
44189;SDS011;29856;52.144;5.430;2023-04-25T14:06:16;6.53;;;1.35;;
44189;SDS011;29856;52.144;5.430;2023-04-25T14:08:42;8.43;;;2.08;;
44189;SDS011;29856;52.144;5.430;2023-04-25T14:11:07;8.77;;;1.83;;
44189;SDS011;29856;52.144;5.430;2023-04-25T14:13:33;7.35;;;1.60;;
44189;SDS011;29856;52.144;5.430;2023-04-25T14:15:58;10.27;;;2.38;;
44189;SDS011;29856;52.144;5.430;2023-04-25T14:18:23;6.43;;;1.50;;
44189;SDS011;29856;52.144;5.430;2023-04-25T14:20:49;6.93;;;1.77;;
44189;SDS011;29856;52.144;5.430;2023-04-25T14:23:15;6.57;;;1.48;;
44189;SDS011;29856;52.144;5.430;2023-04-25T14:25:40;5.32;;;1.52;;
44189;SDS011;29856;52.144;5.430;2023-04-25T14:28:06;3.97;;;1.10;;
44189;SDS011;29856;52.144;5.430;2023-04-25T14:30:31;4.68;;;1.20;;
44189;SDS011;29856;52.144;5.430;2023-04-25T14:32:57;6.45;;;1.33;;
44189;SDS011;29856;52.144;5.430;2023-04-25T14:35:22;4.95;;;1.10;;
44189;SDS011;29856;52.144;5.430;2023-04-25T14:37:47;6.82;;;1.63;;
44189;SDS011;29856;52.144;5.430;2023-04-25T14:40:13;4.75;;;1.08;;
44189;SDS011;29856;52.144;5.430;2023-04-25T14:42:39;5.13;;;1.27;;
44189;SDS011;29856;52.144;5.430;2023-04-25T14:45:05;4.07;;;1.50;;
44189;SDS011;29856;52.144;5.430;2023-04-25T14:47:31;7.18;;;1.77;;
44189;SDS011;29856;52.144;5.430;2023-04-25T14:49:56;4.32;;;1.10;;